createdAt,value
2018-04-20T00:01:33.132Z,51.30
2018-04-20T00:04:00.349Z,51.30
2018-04-20T00:06:27.733Z,51.40
2018-04-20T00:08:55.175Z,51.60
2018-04-20T00:11:22.977Z,52.50
2018-04-20T00:13:49.200Z,52.50
2018-04-20T00:16:16.442Z,52.20
2018-04-20T00:18:42.801Z,53.70
2018-04-20T00:21:10.012Z,51.80
2018-04-20T00:23:36.648Z,51.80
2018-04-20T00:26:03.690Z,52.40
2018-04-20T00:28:30.352Z,52.20
2018-04-20T00:30:56.673Z,52.60
2018-04-20T00:33:24.110Z,53.00
2018-04-20T00:35:50.314Z,53.30
2018-04-20T00:38:16.745Z,52.80
2018-04-20T00:40:44.713Z,53.40
2018-04-20T00:43:11.418Z,53.40
2018-04-20T00:45:39.507Z,53.20
2018-04-20T00:48:06.315Z,54.10
2018-04-20T00:50:32.690Z,54.20
2018-04-20T00:52:59.902Z,54.90
2018-04-20T00:55:26.279Z,54.60
2018-04-20T00:57:52.981Z,54.40
2018-04-20T01:00:20.751Z,55.00
2018-04-20T01:02:46.972Z,55.00
2018-04-20T01:05:13.561Z,54.80
2018-04-20T01:07:41.182Z,54.80
2018-04-20T01:10:08.801Z,55.00
2018-04-20T01:12:35.588Z,55.00
2018-04-20T01:15:02.692Z,54.20
2018-04-20T01:17:30.272Z,54.80
2018-04-20T01:19:57.596Z,54.40
2018-04-20T01:22:24.192Z,55.00
2018-04-20T01:24:52.150Z,55.40
2018-04-20T01:27:18.970Z,55.30
2018-04-20T01:29:46.717Z,55.50
2018-04-20T01:32:12.898Z,56.30
2018-04-20T01:34:39.641Z,55.50
2018-04-20T01:37:06.483Z,55.90
2018-04-20T01:39:33.326Z,56.20
2018-04-20T01:41:59.652Z,55.80
2018-04-20T01:44:26.442Z,56.20
2018-04-20T01:46:53.255Z,55.70
2018-04-20T01:49:20.047Z,57.00
2018-04-20T01:51:46.815Z,56.10
2018-04-20T01:54:13.606Z,56.50
2018-04-20T01:56:40.450Z,56.50
2018-04-20T01:59:07.166Z,57.00
2018-04-20T02:01:33.671Z,56.80
2018-04-20T02:04:00.518Z,57.40
2018-04-20T02:06:27.501Z,57.80
2018-04-20T02:08:53.726Z,57.70
2018-04-20T02:11:20.516Z,57.30
2018-04-20T02:13:48.096Z,57.20
2018-04-20T02:16:14.813Z,57.20
2018-04-20T02:18:41.581Z,57.50
2018-04-20T02:21:08.374Z,57.20
2018-04-20T02:23:34.550Z,57.60
2018-04-20T02:26:01.409Z,58.30
2018-04-20T02:28:28.186Z,58.70
2018-04-20T02:30:55.078Z,58.90
2018-04-20T02:33:21.710Z,59.00
2018-04-20T02:35:48.798Z,59.50
2018-04-20T02:38:15.340Z,59.50
2018-04-20T02:40:41.600Z,59.10
2018-04-20T02:43:08.456Z,60.20
2018-04-20T02:45:35.274Z,61.80
2018-04-20T02:48:02.026Z,61.00
2018-04-20T02:50:29.538Z,60.00
2018-04-20T02:52:56.353Z,59.90
2018-04-20T02:55:24.570Z,59.70
2018-04-20T02:57:51.157Z,59.70
2018-04-20T03:00:17.469Z,59.80
2018-04-20T03:02:44.197Z,61.80
2018-04-20T03:05:11.268Z,59.40
2018-04-20T03:07:38.062Z,59.30
2018-04-20T03:10:04.826Z,60.30
2018-04-20T03:12:31.021Z,60.20
2018-04-20T03:14:57.912Z,61.20
2018-04-20T03:17:24.648Z,60.90
2018-04-20T03:19:51.445Z,60.80
2018-04-20T03:22:18.210Z,61.10
2018-04-20T03:24:44.951Z,60.10
2018-04-20T03:27:11.273Z,61.70
2018-04-20T03:29:38.138Z,60.50
2018-04-20T03:32:04.371Z,61.20
2018-04-20T03:34:30.555Z,60.40
2018-04-20T03:36:57.440Z,60.90
2018-04-20T03:39:23.657Z,60.30
2018-04-20T03:41:50.548Z,60.20
2018-04-20T03:44:17.305Z,60.70
2018-04-20T03:46:43.665Z,60.50
2018-04-20T03:49:10.046Z,60.00
2018-04-20T03:51:37.721Z,60.30
2018-04-20T03:54:04.489Z,60.30
2018-04-20T03:56:31.279Z,60.60
2018-04-20T03:58:58.796Z,61.70
2018-04-20T04:01:24.990Z,61.00
2018-04-20T04:03:51.623Z,62.10
2018-04-20T04:06:19.356Z,60.40
2018-04-20T04:08:46.095Z,61.10
2018-04-20T04:11:13.559Z,61.30
2018-04-20T04:13:40.620Z,60.60
2018-04-20T04:16:07.719Z,61.80
2018-04-20T04:18:46.890Z,61.60
2018-04-20T04:21:39.993Z,60.90
2018-04-20T04:24:18.770Z,60.90
2018-04-20T04:26:59.567Z,61.20
2018-04-20T04:29:26.306Z,62.80
2018-04-20T04:31:53.545Z,63.00
2018-04-20T04:34:21.336Z,62.90
2018-04-20T04:36:47.837Z,62.90
2018-04-20T04:39:14.913Z,62.20
2018-04-20T04:41:41.167Z,62.20
2018-04-20T04:44:08.334Z,62.20
2018-04-20T04:46:34.570Z,63.10
2018-04-20T04:49:00.792Z,63.80
2018-04-20T04:51:28.179Z,63.90
2018-04-20T04:53:55.496Z,63.70
2018-04-20T04:56:22.570Z,63.00
2018-04-20T04:58:49.588Z,63.20
2018-04-20T05:01:15.865Z,63.20
2018-04-20T05:03:42.667Z,63.30
2018-04-20T05:06:10.489Z,63.10
2018-04-20T05:08:37.498Z,62.40
2018-04-20T05:11:04.997Z,61.30
2018-04-20T05:13:31.789Z,61.20
2018-04-20T05:15:58.796Z,60.60
2018-04-20T05:18:25.684Z,60.60
2018-04-20T05:20:52.705Z,58.90
2018-04-20T05:23:19.035Z,58.90
2018-04-20T05:25:45.829Z,58.70
2018-04-20T05:28:12.094Z,57.60
2018-04-20T05:30:38.964Z,57.80
2018-04-20T05:33:05.460Z,58.40
2018-04-20T05:35:32.998Z,57.60
2018-04-20T05:37:59.740Z,57.60
2018-04-20T05:40:26.255Z,57.60
2018-04-20T05:42:53.321Z,56.00
2018-04-20T05:45:19.546Z,56.00
2018-04-20T05:47:45.985Z,56.20
2018-04-20T05:50:12.303Z,54.80
2018-04-20T05:52:38.736Z,55.50
2018-04-20T05:55:05.810Z,53.80
2018-04-20T05:57:32.021Z,53.80
2018-04-20T05:59:58.792Z,52.60
2018-04-20T06:02:25.647Z,52.60
2018-04-20T06:04:51.893Z,50.90
2018-04-20T06:07:19.558Z,51.90
2018-04-20T06:09:47.153Z,50.90
2018-04-20T06:12:13.823Z,51.00
2018-04-20T06:14:40.146Z,51.20
2018-04-20T06:17:06.440Z,49.70
2018-04-20T06:19:32.992Z,48.60
2018-04-20T06:21:59.756Z,50.20
2018-04-20T06:24:26.001Z,49.60
2018-04-20T06:26:52.309Z,49.50
2018-04-20T06:29:19.834Z,48.70
2018-04-20T06:31:47.028Z,48.70
2018-04-20T06:34:13.797Z,46.90
2018-04-20T06:36:41.585Z,45.40
2018-04-20T06:39:07.808Z,45.30
2018-04-20T06:41:34.751Z,43.10
2018-04-20T06:44:00.950Z,43.10
2018-04-20T06:46:27.791Z,42.20
2018-04-20T06:48:54.018Z,42.90
2018-04-20T06:51:20.549Z,44.50
2018-04-20T06:53:47.861Z,41.00
2018-04-20T06:56:14.629Z,41.00
2018-04-20T06:58:41.419Z,40.90
2018-04-20T07:01:08.166Z,42.60
2018-04-20T07:03:34.957Z,43.10
2018-04-20T07:06:01.198Z,41.00
2018-04-20T07:08:27.394Z,39.50
2018-04-20T07:10:53.647Z,41.20
2018-04-20T07:13:19.935Z,39.80
2018-04-20T07:15:47.106Z,39.00
2018-04-20T07:18:13.370Z,39.80
2018-04-20T07:20:39.559Z,39.80
2018-04-20T07:23:05.923Z,38.80
2018-04-20T07:25:32.249Z,39.30
2018-04-20T07:27:58.485Z,41.30
2018-04-20T07:30:25.303Z,38.70
2018-04-20T07:32:52.853Z,39.70
2018-04-20T07:35:19.598Z,39.80
2018-04-20T07:37:45.823Z,39.40
2018-04-20T07:40:12.071Z,38.00
2018-04-20T07:42:38.297Z,38.40
2018-04-20T07:45:05.112Z,38.00
2018-04-20T07:47:31.929Z,38.30
2018-04-20T07:49:58.255Z,37.20
2018-04-20T07:52:24.704Z,38.00
2018-04-20T07:54:51.656Z,36.80
2018-04-20T07:57:19.247Z,37.90
2018-04-20T07:59:46.797Z,38.60
2018-04-20T08:02:13.539Z,39.30
2018-04-20T08:04:39.765Z,38.80
2018-04-20T08:07:05.970Z,37.60
2018-04-20T08:09:32.218Z,36.30
2018-04-20T08:11:59.706Z,37.10
2018-04-20T08:14:27.026Z,37.40
2018-04-20T08:16:54.010Z,36.80
2018-04-20T08:19:21.510Z,37.10
2018-04-20T08:21:47.741Z,37.10
2018-04-20T08:24:14.534Z,37.80
2018-04-20T08:26:42.076Z,37.60
2018-04-20T08:29:10.029Z,36.70
2018-04-20T08:31:36.467Z,36.70
2018-04-20T08:34:02.650Z,37.50
2018-04-20T08:36:28.913Z,37.10
2018-04-20T08:38:55.145Z,36.80
2018-04-20T08:41:21.894Z,36.40
2018-04-20T08:43:48.120Z,36.60
2018-04-20T08:46:14.553Z,36.60
2018-04-20T08:48:43.472Z,34.00
2018-04-20T08:51:11.416Z,35.30
2018-04-20T08:53:37.884Z,35.20
2018-04-20T08:56:05.199Z,35.10
2018-04-20T08:58:31.566Z,35.90
2018-04-20T09:00:59.742Z,36.90
2018-04-20T09:03:26.629Z,37.00
2018-04-20T09:05:53.075Z,36.60
2018-04-20T09:08:19.305Z,36.30
2018-04-20T09:10:46.064Z,35.50
2018-04-20T09:13:13.565Z,35.50
2018-04-20T09:15:41.004Z,36.00
2018-04-20T09:18:09.064Z,35.10
2018-04-20T09:20:36.021Z,35.10
2018-04-20T09:23:02.919Z,35.10
2018-04-20T09:25:31.924Z,34.40
2018-04-20T09:27:58.788Z,34.00
2018-04-20T09:30:26.257Z,34.30
2018-04-20T09:32:52.889Z,34.30
2018-04-20T09:35:20.183Z,33.80
2018-04-20T09:37:46.398Z,32.50
2018-04-20T09:40:12.641Z,32.80
2018-04-20T09:42:39.682Z,32.00
2018-04-20T09:45:06.578Z,33.00
2018-04-20T09:47:33.936Z,32.80
2018-04-20T09:50:00.870Z,31.50
2018-04-20T09:52:29.033Z,32.10
2018-04-20T09:54:55.441Z,32.20
2018-04-20T09:57:23.446Z,31.50
2018-04-20T09:59:51.362Z,31.10
2018-04-20T10:02:18.135Z,31.10
2018-04-20T10:04:50.444Z,30.20
2018-04-20T10:07:17.669Z,30.30
2018-04-20T10:09:43.924Z,31.20
2018-04-20T10:12:10.374Z,30.90
2018-04-20T10:14:36.595Z,30.30
2018-04-20T10:17:02.981Z,29.70
2018-04-20T10:19:29.892Z,30.00
2018-04-20T10:21:56.091Z,30.70
2018-04-20T10:24:22.328Z,30.20
2018-04-20T10:26:48.704Z,30.20
2018-04-20T10:29:15.638Z,29.80
2018-04-20T10:31:41.813Z,30.00
2018-04-20T10:34:08.337Z,29.90
2018-04-20T10:36:35.935Z,30.40
2018-04-20T10:39:02.334Z,30.40
2018-04-20T10:41:29.915Z,29.50
2018-04-20T10:43:56.299Z,29.40
2018-04-20T10:46:24.277Z,29.30
2018-04-20T10:48:50.495Z,29.30
2018-04-20T10:51:17.187Z,28.40
2018-04-20T10:53:44.468Z,28.60
2018-04-20T10:56:12.285Z,28.10
2018-04-20T10:58:39.717Z,28.50
2018-04-20T11:01:07.787Z,28.20
2018-04-20T11:03:34.486Z,28.20
2018-04-20T11:06:01.163Z,27.60
2018-04-20T11:08:27.353Z,28.00
2018-04-20T11:10:53.540Z,28.00
2018-04-20T11:13:19.716Z,27.60
2018-04-20T11:15:46.731Z,27.60
2018-04-20T11:18:12.975Z,28.00
2018-04-20T11:20:39.390Z,27.60
2018-04-20T11:23:06.870Z,28.00
2018-04-20T11:25:33.062Z,28.10
2018-04-20T11:27:59.282Z,28.80
2018-04-20T11:30:25.836Z,29.00
2018-04-20T11:32:58.059Z,28.20
2018-04-20T11:35:24.250Z,28.10
2018-04-20T11:37:51.149Z,27.50
2018-04-20T11:40:18.644Z,27.00
2018-04-20T11:42:45.017Z,26.90
2018-04-20T11:45:11.419Z,26.60
2018-04-20T11:47:38.170Z,26.80
2018-04-20T11:50:05.317Z,25.30
2018-04-20T11:52:33.063Z,26.20
2018-04-20T11:55:00.075Z,26.10
2018-04-20T11:57:27.590Z,26.10
2018-04-20T11:59:54.385Z,26.10
2018-04-20T12:02:21.176Z,24.90
2018-04-20T12:04:47.425Z,25.60
2018-04-20T12:07:14.315Z,26.10
2018-04-20T12:09:40.838Z,27.00
2018-04-20T12:12:09.549Z,25.60
2018-04-20T12:14:36.846Z,25.60
2018-04-20T12:17:04.334Z,24.80
2018-04-20T12:19:31.129Z,24.80
2018-04-20T12:21:58.721Z,25.50
2018-04-20T12:24:25.914Z,25.20
2018-04-20T12:26:52.852Z,25.20
2018-04-20T12:29:19.165Z,24.20
2018-04-20T12:31:45.835Z,24.70
2018-04-20T12:36:47.787Z,25.10
2018-04-20T12:39:14.287Z,25.10
2018-04-20T12:41:41.863Z,25.00
2018-04-20T12:44:08.835Z,24.00
2018-04-20T12:46:35.240Z,23.40
2018-04-20T12:49:01.514Z,24.00
2018-04-20T12:51:34.995Z,24.20
2018-04-20T12:54:01.188Z,23.80
2018-04-20T12:56:35.376Z,23.90
2018-04-20T12:59:02.163Z,23.70
2018-04-20T13:01:28.881Z,23.90
2018-04-20T13:03:55.833Z,22.60
2018-04-20T13:06:23.041Z,22.70
2018-04-20T13:08:49.782Z,23.10
2018-04-20T13:11:16.209Z,22.60
2018-04-20T13:13:43.372Z,22.20
2018-04-20T13:16:10.347Z,22.40
2018-04-20T13:18:36.677Z,23.20
2018-04-20T13:21:03.552Z,21.80
2018-04-20T13:23:30.060Z,22.60
2018-04-20T13:25:57.094Z,21.80
2018-04-20T13:28:24.049Z,22.80
2018-04-20T13:30:50.276Z,22.80
2018-04-20T13:33:16.515Z,22.80
2018-04-20T13:35:42.770Z,22.70
2018-04-20T13:38:09.512Z,23.00
2018-04-20T13:40:36.010Z,21.80
2018-04-20T13:43:02.969Z,22.20
2018-04-20T13:45:29.306Z,22.30
2018-04-20T13:47:56.027Z,22.00
2018-04-20T13:50:23.410Z,21.30
2018-04-20T13:52:50.231Z,21.20
2018-04-20T13:55:16.991Z,22.00
2018-04-20T13:57:44.010Z,23.10
2018-04-20T14:00:10.318Z,23.10
2018-04-20T14:02:38.494Z,22.70
2018-04-20T14:05:06.618Z,22.50
2018-04-20T14:07:33.941Z,22.40
2018-04-20T14:10:00.731Z,23.00
2018-04-20T14:12:26.965Z,22.70
2018-04-20T14:14:53.226Z,22.70
2018-04-20T14:17:20.574Z,23.10
2018-04-20T14:19:47.623Z,22.80
2018-04-20T14:22:14.649Z,22.70
2018-04-20T14:24:42.031Z,22.70
2018-04-20T14:27:08.384Z,23.00
2018-04-20T14:29:36.124Z,22.80
2018-04-20T14:32:03.087Z,22.70
2018-04-20T14:34:29.672Z,22.70
2018-04-20T14:36:57.308Z,22.30
2018-04-20T14:39:23.535Z,22.30
2018-04-20T14:41:49.746Z,22.80
2018-04-20T14:44:15.963Z,22.50
2018-04-20T14:46:42.193Z,22.30
2018-04-20T14:49:09.667Z,22.30
2018-04-20T14:51:35.924Z,22.30
2018-04-20T14:54:02.929Z,21.90
2018-04-20T14:56:29.645Z,22.30
2018-04-20T14:58:56.901Z,22.20
2018-04-20T15:01:24.502Z,22.90
2018-04-20T15:03:50.976Z,22.90
2018-04-20T15:06:18.591Z,22.90
2018-04-20T15:08:44.781Z,22.90
2018-04-20T15:11:12.351Z,22.50
2018-04-20T15:13:39.127Z,22.50
2018-04-20T15:16:06.360Z,22.60
2018-04-20T15:18:32.667Z,23.10
2018-04-20T15:20:58.898Z,22.50
2018-04-20T15:23:25.134Z,22.70
2018-04-20T15:25:51.386Z,22.70
2018-04-20T15:28:18.250Z,22.60
2018-04-20T15:30:45.494Z,22.80
2018-04-20T15:33:17.411Z,22.70
2018-04-20T15:35:43.855Z,22.30
2018-04-20T15:38:11.502Z,23.10
2018-04-20T15:40:37.705Z,23.00
2018-04-20T15:43:04.665Z,23.80
2018-04-20T15:45:32.225Z,23.80
2018-04-20T15:47:58.437Z,23.80
2018-04-20T15:50:25.462Z,23.90
2018-04-20T15:52:52.020Z,23.90
2018-04-20T15:55:19.548Z,23.70
2018-04-20T15:57:45.933Z,23.60
2018-04-20T16:00:13.526Z,24.00
2018-04-20T16:02:40.948Z,24.20
2018-04-20T16:05:07.843Z,24.20
2018-04-20T16:07:35.032Z,24.40
2018-04-20T16:10:02.614Z,24.10
2018-04-20T16:12:29.446Z,24.10
2018-04-20T16:14:55.673Z,24.30
2018-04-20T16:17:22.368Z,25.00
2018-04-20T16:19:49.692Z,25.20
2018-04-20T16:22:16.691Z,25.40
2018-04-20T16:24:44.234Z,25.20
2018-04-20T16:27:10.446Z,25.20
2018-04-20T16:29:37.323Z,25.50
2018-04-20T16:32:05.688Z,25.50
2018-04-20T16:34:32.882Z,25.50
2018-04-20T16:37:00.577Z,25.50
2018-04-20T16:39:27.100Z,25.40
2018-04-20T16:41:53.984Z,26.30
2018-04-20T16:44:21.008Z,26.20
2018-04-20T16:46:47.258Z,26.20
2018-04-20T16:49:13.569Z,26.10
2018-04-20T16:51:39.780Z,25.90
2018-04-20T16:54:06.260Z,25.80
2018-04-20T16:56:33.768Z,27.10
2018-04-20T16:59:00.990Z,27.10
2018-04-20T17:01:27.710Z,27.70
2018-04-20T17:03:54.694Z,27.30
2018-04-20T17:06:21.046Z,27.30
2018-04-20T17:08:48.132Z,27.70
2018-04-20T17:11:15.091Z,28.10
2018-04-20T17:13:41.845Z,28.10
2018-04-20T17:16:08.069Z,28.80
2018-04-20T17:18:34.851Z,28.20
2018-04-20T17:21:02.145Z,29.30
2018-04-20T17:23:29.203Z,28.80
2018-04-20T17:25:56.429Z,28.80
2018-04-20T17:28:24.049Z,32.70
2018-04-20T17:30:57.178Z,32.60
2018-04-20T17:33:24.936Z,33.40
2018-04-20T17:35:51.913Z,32.90
2018-04-20T17:38:18.112Z,32.80
2018-04-20T17:40:45.710Z,32.10
2018-04-20T17:43:12.508Z,32.10
2018-04-20T17:45:39.723Z,33.00
2018-04-20T17:48:07.064Z,32.90
2018-04-20T17:50:33.271Z,33.70
2018-04-20T17:53:00.102Z,33.00
2018-04-20T17:55:27.030Z,34.50
2018-04-20T17:57:53.996Z,35.00
2018-04-20T18:00:20.238Z,35.00
2018-04-20T18:02:48.197Z,35.00
2018-04-20T18:05:14.476Z,34.60
2018-04-20T18:07:42.308Z,34.40
2018-04-20T18:10:08.544Z,34.40
2018-04-20T18:12:34.733Z,36.10
2018-04-20T18:15:02.636Z,37.00
2018-04-20T18:17:29.454Z,37.10
2018-04-20T18:19:57.025Z,36.50
2018-04-20T18:22:24.291Z,38.40
2018-04-20T18:24:51.302Z,38.80
2018-04-20T18:27:19.649Z,38.00
2018-04-20T18:29:47.116Z,37.90
2018-04-20T18:32:13.973Z,38.80
2018-04-20T18:34:40.928Z,39.80
2018-04-20T18:37:08.520Z,40.80
2018-04-20T18:39:34.853Z,40.80
2018-04-20T18:42:01.085Z,40.30
2018-04-20T18:44:28.647Z,40.50
2018-04-20T18:46:55.641Z,40.10
2018-04-20T18:49:22.671Z,40.60
2018-04-20T18:51:49.554Z,40.60
2018-04-20T18:54:15.998Z,42.20
2018-04-20T18:56:42.761Z,40.90
2018-04-20T18:59:09.507Z,41.20
2018-04-20T19:01:36.697Z,39.90
2018-04-20T19:04:03.161Z,40.20
2018-04-20T19:06:29.633Z,41.00
2018-04-20T19:08:56.550Z,40.50
2018-04-20T19:11:23.326Z,41.10
2018-04-20T19:13:49.901Z,40.80
2018-04-20T19:16:17.577Z,40.40
2018-04-20T19:18:44.077Z,40.40
2018-04-20T19:21:12.711Z,40.80
2018-04-20T19:23:39.934Z,40.80
2018-04-20T19:26:06.155Z,42.80
2018-04-20T19:28:32.368Z,42.80
2018-04-20T19:30:59.990Z,42.80
2018-04-20T19:33:26.997Z,42.80
2018-04-20T19:35:53.241Z,43.60
2018-04-20T19:38:19.895Z,44.00
2018-04-20T19:40:46.340Z,43.20
2018-04-20T19:43:13.126Z,42.90
2018-04-20T19:45:40.889Z,43.00
2018-04-20T19:48:07.955Z,43.00
2018-04-20T19:50:34.477Z,43.50
2018-04-20T19:53:01.291Z,45.10
2018-04-20T19:55:27.583Z,45.10
2018-04-20T19:57:55.341Z,44.80
2018-04-20T20:00:21.723Z,44.80
2018-04-20T20:02:48.748Z,44.70
2018-04-20T20:05:15.004Z,44.50
2018-04-20T20:07:41.486Z,45.30
2018-04-20T20:10:09.118Z,46.40
2018-04-20T20:12:35.885Z,46.40
2018-04-20T20:15:02.648Z,46.10
2018-04-20T20:17:29.880Z,46.30
2018-04-20T20:19:56.239Z,46.90
2018-04-20T20:22:22.502Z,47.10
2018-04-20T20:24:56.046Z,48.10
2018-04-20T20:27:23.876Z,47.50
2018-04-20T20:29:51.598Z,47.90
2018-04-20T20:32:18.582Z,48.60
2018-04-20T20:34:45.386Z,48.50
2018-04-20T20:37:12.561Z,48.20
2018-04-20T20:39:38.822Z,47.60
2018-04-20T20:42:05.082Z,48.30
2018-04-20T20:44:31.884Z,49.10
2018-04-20T20:46:58.885Z,48.50
2018-04-20T20:49:25.394Z,48.30
2018-04-20T20:51:52.397Z,48.90
2018-04-20T20:54:18.706Z,48.90
2018-04-20T20:56:46.016Z,48.80
2018-04-20T20:59:13.664Z,50.60
2018-04-20T21:01:39.861Z,50.50
2018-04-20T21:04:07.200Z,50.20
2018-04-20T21:06:34.386Z,49.30
2018-04-20T21:09:00.636Z,49.20
2018-04-20T21:11:26.921Z,49.70
2018-04-20T21:13:53.792Z,51.40
2018-04-20T21:16:20.203Z,50.00
2018-04-20T21:18:47.852Z,50.80
2018-04-20T21:21:14.881Z,51.80
2018-04-20T21:23:41.709Z,51.70
2018-04-20T21:26:07.987Z,51.00
2018-04-20T21:28:35.039Z,51.50
2018-04-20T21:31:02.717Z,52.40
2018-04-20T21:33:28.921Z,52.40
2018-04-20T21:35:55.986Z,51.90
2018-04-20T21:38:23.000Z,54.50
2018-04-20T21:40:50.419Z,56.70
2018-04-20T21:43:17.381Z,56.90
2018-04-20T21:45:44.423Z,56.80
2018-04-20T21:48:11.187Z,55.90
2018-04-20T21:50:38.679Z,56.10
2018-04-20T21:53:05.419Z,56.00
2018-04-20T21:55:32.889Z,56.40
2018-04-20T21:58:00.433Z,58.30
2018-04-20T22:00:26.650Z,58.20
2018-04-20T22:02:53.553Z,57.40
2018-04-20T22:05:20.299Z,56.80
2018-04-20T22:07:46.577Z,56.50
2018-04-20T22:10:12.878Z,56.90
2018-04-20T22:12:39.609Z,55.90
2018-04-20T22:15:06.794Z,55.80
2018-04-20T22:17:33.648Z,55.80
2018-04-20T22:20:00.289Z,56.40
2018-04-20T22:22:27.561Z,56.70
2018-04-20T22:24:54.851Z,56.80
2018-04-20T22:27:22.520Z,57.30
2018-04-20T22:29:48.743Z,57.30
2018-04-20T22:32:15.482Z,57.40
2018-04-20T22:34:42.560Z,57.30
2018-04-20T22:37:10.215Z,57.00
2018-04-20T22:39:37.663Z,58.20
2018-04-20T22:42:04.062Z,58.10
2018-04-20T22:44:31.665Z,58.20
2018-04-20T22:46:58.438Z,58.10
2018-04-20T22:49:25.232Z,58.70
2018-04-20T22:51:51.992Z,58.70
2018-04-20T22:54:18.902Z,58.60
2018-04-20T22:56:46.879Z,58.90
2018-04-20T22:59:13.108Z,58.90
2018-04-20T23:01:40.306Z,59.10
2018-04-20T23:04:07.130Z,58.50
2018-04-20T23:06:34.821Z,59.90
2018-04-20T23:09:01.314Z,60.50
2018-04-20T23:11:28.341Z,60.00
2018-04-20T23:13:55.076Z,60.00
2018-04-20T23:16:21.282Z,59.50
2018-04-20T23:18:47.866Z,60.70
2018-04-20T23:21:15.976Z,59.90
2018-04-20T23:23:42.414Z,59.90
2018-04-20T23:26:09.288Z,59.90
2018-04-20T23:28:35.800Z,60.70
2018-04-20T23:31:03.398Z,60.10
2018-04-20T23:33:30.138Z,60.00
2018-04-20T23:35:58.256Z,60.00
2018-04-20T23:38:24.921Z,59.70
2018-04-20T23:40:52.323Z,60.40
2018-04-20T23:43:19.372Z,60.10
2018-04-20T23:45:46.602Z,60.00
2018-04-20T23:48:12.809Z,59.60
2018-04-20T23:50:40.287Z,59.30
2018-04-20T23:53:07.057Z,59.20
2018-04-20T23:55:33.277Z,59.10
2018-04-20T23:57:59.483Z,59.20
